Time;durP1;ratioP1;P1;durP2;ratioP2;P2;SDS_P1;SDS_P2;PMS_P1;PMS_P2;Temp;Humidity;BMP_temperature;BMP_pressure;BME280_temperature;BME280_humidity;BME280_pressure;Samples;Min_cycle;Max_cycle;Signal;HPM_P1;HPM_P2
2024/02/06 00:00:07;;;;;;;4.20;3.38;;;;;;;;;;4929980;29;20510;-67
2024/02/06 00:02:34;;;;;;;4.63;4.22;;;;;;;;;;4929111;29;20031;-68
2024/02/06 00:05:01;;;;;;;5.25;2.58;;;;;;;;;;4913723;29;20059;-67
2024/02/06 00:07:28;;;;;;;3.42;2.85;;;;;;;;;;4943737;29;20055;-69
2024/02/06 00:09:56;;;;;;;4.68;2.70;;;;;;;;;;4937483;29;20074;-67
2024/02/06 00:12:22;;;;;;;4.85;4.20;;;;;;;;;;4914012;29;20414;-68
2024/02/06 00:14:48;;;;;;;5.95;3.65;;;;;;;;;;4931024;29;20027;-69
2024/02/06 00:17:14;;;;;;;3.15;2.95;;;;;;;;;;4929497;29;20051;-68
2024/02/06 00:19:40;;;;;;;5.25;3.80;;;;;;;;;;4930528;29;20052;-67
2024/02/06 00:22:07;;;;;;;9.52;4.20;;;;;;;;;;4930926;29;20049;-68
2024/02/06 00:24:34;;;;;;;4.55;2.97;;;;;;;;;;4929745;29;20054;-68
2024/02/06 00:27:00;;;;;;;3.88;3.45;;;;;;;;;;4930397;29;20032;-67
2024/02/06 00:29:27;;;;;;;8.30;3.95;;;;;;;;;;4929928;29;20059;-67
2024/02/06 00:31:53;;;;;;;4.40;2.88;;;;;;;;;;4928867;29;20054;-69
2024/02/06 00:34:19;;;;;;;4.03;3.15;;;;;;;;;;4929823;29;20554;-67
2024/02/06 00:36:45;;;;;;;6.30;3.35;;;;;;;;;;4930400;29;20066;-68
2024/02/06 00:39:10;;;;;;;5.38;3.65;;;;;;;;;;4929606;29;20736;-68
2024/02/06 00:41:39;;;;;;;2.88;2.67;;;;;;;;;;4929470;29;20078;-68
2024/02/06 00:44:05;;;;;;;3.83;3.35;;;;;;;;;;4928268;29;20123;-68
2024/02/06 00:46:31;;;;;;;3.55;3.25;;;;;;;;;;4929721;29;20098;-67
2024/02/06 00:48:56;;;;;;;5.20;4.70;;;;;;;;;;4929378;29;20577;-69
2024/02/06 00:51:22;;;;;;;6.10;3.75;;;;;;;;;;4928969;29;20546;-69
2024/02/06 00:53:48;;;;;;;3.78;2.40;;;;;;;;;;4929677;29;20039;-68
2024/02/06 00:56:14;;;;;;;11.80;4.25;;;;;;;;;;4928354;29;20024;-68
2024/02/06 00:58:41;;;;;;;3.60;2.55;;;;;;;;;;4930452;29;20050;-68
2024/02/06 01:01:06;;;;;;;3.38;3.17;;;;;;;;;;4927731;29;20546;-68
2024/02/06 01:03:32;;;;;;;8.38;4.25;;;;;;;;;;4928820;29;20107;-69
2024/02/06 01:05:58;;;;;;;2.97;2.75;;;;;;;;;;4928650;29;20738;-68
2024/02/06 01:08:24;;;;;;;4.07;3.25;;;;;;;;;;4928831;29;20094;-68
2024/02/06 01:10:49;;;;;;;4.68;4.07;;;;;;;;;;4929425;29;20448;-69
2024/02/06 01:13:15;;;;;;;5.95;2.47;;;;;;;;;;4928800;29;20074;-68
2024/02/06 01:15:41;;;;;;;4.63;4.18;;;;;;;;;;4928974;29;20541;-67
2024/02/06 01:18:07;;;;;;;7.43;3.50;;;;;;;;;;4928172;29;20051;-67
2024/02/06 01:20:33;;;;;;;3.13;2.72;;;;;;;;;;4928401;29;20101;-69
2024/02/06 01:22:59;;;;;;;5.40;3.50;;;;;;;;;;4928374;29;20462;-68
2024/02/06 01:25:24;;;;;;;9.55;4.13;;;;;;;;;;4928205;29;20570;-68
2024/02/06 01:27:50;;;;;;;6.38;3.08;;;;;;;;;;4928922;29;20070;-67
2024/02/06 01:30:16;;;;;;;5.20;3.58;;;;;;;;;;4926703;29;20522;-68
2024/02/06 01:32:42;;;;;;;5.50;3.90;;;;;;;;;;4928701;29;20028;-67
2024/02/06 01:35:09;;;;;;;6.63;4.25;;;;;;;;;;4928485;29;20046;-67
2024/02/06 01:37:35;;;;;;;5.22;3.55;;;;;;;;;;4928318;29;20040;-68
2024/02/06 01:40:01;;;;;;;3.40;3.15;;;;;;;;;;4927900;29;20098;-68
2024/02/06 01:42:29;;;;;;;4.18;3.78;;;;;;;;;;4928390;29;20048;-68
2024/02/06 01:44:56;;;;;;;8.10;3.97;;;;;;;;;;4928513;29;20534;-67
2024/02/06 01:47:22;;;;;;;6.32;2.90;;;;;;;;;;4928843;29;20031;-68
2024/02/06 01:49:48;;;;;;;6.97;3.75;;;;;;;;;;4928751;29;20478;-67
2024/02/06 01:52:14;;;;;;;5.22;4.00;;;;;;;;;;4927762;29;20110;-68
2024/02/06 01:54:39;;;;;;;4.28;3.85;;;;;;;;;;4928200;29;20581;-68
2024/02/06 01:57:05;;;;;;;3.75;3.50;;;;;;;;;;4927863;29;20602;-68
2024/02/06 01:59:31;;;;;;;2.45;2.25;;;;;;;;;;4928460;29;20122;-68
2024/02/06 02:01:57;;;;;;;5.63;3.92;;;;;;;;;;4927535;29;20035;-69
2024/02/06 02:04:23;;;;;;;4.95;4.45;;;;;;;;;;4927759;29;20450;-69
2024/02/06 02:06:49;;;;;;;4.10;2.85;;;;;;;;;;4928664;29;20038;-67
2024/02/06 02:09:15;;;;;;;8.32;3.60;;;;;;;;;;4927065;29;20143;-68
2024/02/06 02:11:41;;;;;;;7.43;4.95;;;;;;;;;;4927395;29;20467;-69
2024/02/06 02:14:07;;;;;;;5.40;4.15;;;;;;;;;;4926393;29;20043;-68
2024/02/06 02:16:33;;;;;;;4.93;4.50;;;;;;;;;;4925943;29;20087;-69
2024/02/06 02:18:59;;;;;;;6.43;3.85;;;;;;;;;;4927530;29;20032;-69
2024/02/06 02:21:26;;;;;;;4.20;3.55;;;;;;;;;;4927852;29;20047;-69
2024/02/06 02:23:52;;;;;;;3.25;2.65;;;;;;;;;;4927915;29;20498;-69
2024/02/06 02:26:18;;;;;;;3.38;3.17;;;;;;;;;;4928237;29;20047;-68
2024/02/06 02:28:44;;;;;;;4.15;3.72;;;;;;;;;;4926429;29;20039;-69
2024/02/06 02:31:10;;;;;;;3.80;3.50;;;;;;;;;;4927507;29;20130;-69
2024/02/06 02:33:36;;;;;;;4.25;3.95;;;;;;;;;;4910599;29;20502;-68
2024/02/06 02:36:05;;;;;;;4.85;3.95;;;;;;;;;;4927195;29;20525;-68
2024/02/06 02:38:35;;;;;;;3.67;2.67;;;;;;;;;;4924184;29;20047;-67
2024/02/06 02:41:01;;;;;;;2.95;2.75;;;;;;;;;;4925983;29;20075;-68
2024/02/06 02:43:27;;;;;;;2.55;2.45;;;;;;;;;;4931579;29;20075;-69
2024/02/06 02:45:52;;;;;;;3.92;3.63;;;;;;;;;;4932034;29;20115;-68
2024/02/06 02:48:18;;;;;;;5.63;3.47;;;;;;;;;;4931477;29;20111;-69
2024/02/06 02:50:44;;;;;;;6.30;4.40;;;;;;;;;;4916420;29;20429;-69
2024/02/06 02:53:10;;;;;;;2.33;2.22;;;;;;;;;;4931637;29;20031;-69
2024/02/06 02:55:36;;;;;;;10.55;3.95;;;;;;;;;;4930803;29;20046;-68
2024/02/06 02:58:02;;;;;;;6.68;4.00;;;;;;;;;;4915023;29;20048;-67
2024/02/06 03:00:29;;;;;;;8.18;3.83;;;;;;;;;;4935220;29;20031;-68
2024/02/06 03:02:55;;;;;;;4.10;3.20;;;;;;;;;;4950070;29;20035;-67
2024/02/06 03:05:21;;;;;;;3.40;2.80;;;;;;;;;;4938365;29;20050;-67
2024/02/06 03:07:46;;;;;;;5.50;4.30;;;;;;;;;;4934570;29;20657;-68
2024/02/06 03:10:12;;;;;;;5.13;4.03;;;;;;;;;;4932354;29;20082;-67
2024/02/06 03:12:38;;;;;;;3.40;3.08;;;;;;;;;;4933770;29;20063;-68
2024/02/06 03:15:04;;;;;;;2.90;2.70;;;;;;;;;;4929904;29;20470;-69
2024/02/06 03:17:32;;;;;;;3.33;3.05;;;;;;;;;;4931657;29;20146;-68
2024/02/06 03:19:58;;;;;;;2.72;2.53;;;;;;;;;;4929970;29;20126;-68
2024/02/06 03:22:26;;;;;;;2.63;2.42;;;;;;;;;;4928899;29;20130;-68
2024/02/06 03:24:52;;;;;;;3.72;2.85;;;;;;;;;;4930364;29;20043;-67
2024/02/06 03:27:18;;;;;;;3.50;3.20;;;;;;;;;;4930112;29;20076;-68
2024/02/06 03:29:45;;;;;;;2.53;2.35;;;;;;;;;;4933077;29;20047;-67
2024/02/06 03:32:11;;;;;;;2.33;2.22;;;;;;;;;;4929585;29;20028;-67
2024/02/06 03:34:36;;;;;;;3.55;3.08;;;;;;;;;;4929122;29;20055;-68
2024/02/06 03:37:02;;;;;;;4.28;2.35;;;;;;;;;;4929150;29;20036;-68
2024/02/06 03:39:28;;;;;;;2.60;2.45;;;;;;;;;;4930633;29;20039;-68
2024/02/06 03:41:54;;;;;;;3.70;3.40;;;;;;;;;;4930029;29;20039;-67
2024/02/06 03:44:21;;;;;;;3.50;3.20;;;;;;;;;;4931008;29;20122;-69
2024/02/06 03:46:47;;;;;;;3.33;3.13;;;;;;;;;;4930836;29;20038;-68
2024/02/06 03:49:13;;;;;;;1.85;1.77;;;;;;;;;;4930721;29;20043;-69
2024/02/06 03:51:39;;;;;;;2.38;2.28;;;;;;;;;;4929569;29;20123;-69
2024/02/06 03:54:05;;;;;;;3.53;3.15;;;;;;;;;;4924774;29;20122;-70
2024/02/06 03:56:31;;;;;;;3.05;2.85;;;;;;;;;;4930543;29;20188;-69
2024/02/06 03:58:56;;;;;;;7.85;2.75;;;;;;;;;;4929360;29;20694;-69
2024/02/06 04:01:22;;;;;;;3.63;3.42;;;;;;;;;;4927447;29;20032;-70
2024/02/06 04:03:48;;;;;;;4.07;3.60;;;;;;;;;;4929935;29;20039;-69
2024/02/06 04:06:14;;;;;;;3.60;3.30;;;;;;;;;;4927790;29;20032;-70
2024/02/06 04:08:41;;;;;;;6.18;3.90;;;;;;;;;;4926914;29;20190;-70
2024/02/06 04:11:09;;;;;;;4.32;3.15;;;;;;;;;;4929858;29;20057;-70
2024/02/06 04:13:35;;;;;;;4.32;3.47;;;;;;;;;;4928035;29;20054;-71
2024/02/06 04:16:01;;;;;;;4.10;3.70;;;;;;;;;;4928675;29;20498;-70
2024/02/06 04:18:27;;;;;;;4.32;3.80;;;;;;;;;;4930068;29;20138;-70
2024/02/06 04:20:53;;;;;;;4.15;3.72;;;;;;;;;;4930608;29;20042;-70
2024/02/06 04:23:19;;;;;;;4.35;3.95;;;;;;;;;;4929127;29;20107;-70
2024/02/06 04:25:44;;;;;;;4.75;4.20;;;;;;;;;;4927913;29;20035;-69
2024/02/06 04:28:11;;;;;;;17.45;8.02;;;;;;;;;;4910103;29;20139;-69
2024/02/06 04:30:37;;;;;;;8.13;4.47;;;;;;;;;;4929517;29;20039;-69
2024/02/06 04:33:03;;;;;;;4.88;3.97;;;;;;;;;;4928574;29;20048;-68
2024/02/06 04:35:29;;;;;;;5.13;4.18;;;;;;;;;;4930127;29;20039;-68
2024/02/06 04:37:55;;;;;;;6.10;2.47;;;;;;;;;;4929704;29;20542;-70
2024/02/06 04:40:21;;;;;;;3.58;2.20;;;;;;;;;;4927680;29;20063;-67
2024/02/06 04:42:46;;;;;;;3.55;3.25;;;;;;;;;;4929581;29;20454;-68
2024/02/06 04:45:12;;;;;;;6.25;4.18;;;;;;;;;;4929191;29;20039;-68
2024/02/06 04:47:38;;;;;;;5.43;4.43;;;;;;;;;;4929382;29;20539;-68
2024/02/06 04:50:05;;;;;;;3.58;3.00;;;;;;;;;;4929236;29;20138;-68
2024/02/06 04:52:31;;;;;;;3.15;2.95;;;;;;;;;;4927941;29;20511;-68
2024/02/06 04:54:58;;;;;;;9.35;4.85;;;;;;;;;;4929385;29;20134;-67
2024/02/06 04:57:24;;;;;;;8.82;3.92;;;;;;;;;;4928840;29;20078;-67
2024/02/06 04:59:50;;;;;;;4.18;3.88;;;;;;;;;;4929738;29;20545;-67
2024/02/06 05:02:16;;;;;;;3.92;3.63;;;;;;;;;;4929251;29;20028;-67
2024/02/06 05:04:41;;;;;;;8.43;4.72;;;;;;;;;;4929425;29;20098;-67
2024/02/06 05:07:07;;;;;;;6.38;4.35;;;;;;;;;;4927191;29;20020;-68
2024/02/06 05:09:33;;;;;;;7.70;4.78;;;;;;;;;;4928768;29;20106;-67
2024/02/06 05:12:01;;;;;;;7.38;4.95;;;;;;;;;;4928823;29;20066;-67
2024/02/06 05:14:30;;;;;;;6.07;4.80;;;;;;;;;;4915892;29;20091;-67
2024/02/06 05:16:55;;;;;;;6.50;4.88;;;;;;;;;;4930656;29;20051;-67
2024/02/06 05:19:21;;;;;;;7.22;4.45;;;;;;;;;;4928465;29;20040;-66
2024/02/06 05:21:47;;;;;;;5.32;4.82;;;;;;;;;;4928936;29;20070;-67
2024/02/06 05:24:13;;;;;;;6.07;4.47;;;;;;;;;;4927206;29;20091;-66
2024/02/06 05:26:39;;;;;;;4.80;4.32;;;;;;;;;;4926950;29;20406;-70
2024/02/06 05:29:07;;;;;;;6.75;5.65;;;;;;;;;;4928302;29;20105;-71
2024/02/06 05:31:33;;;;;;;5.07;4.68;;;;;;;;;;4927166;29;20035;-70
2024/02/06 05:33:59;;;;;;;6.15;4.82;;;;;;;;;;4928772;29;20631;-70
2024/02/06 05:36:25;;;;;;;5.63;5.13;;;;;;;;;;4928612;29;20042;-69
2024/02/06 05:38:51;;;;;;;3.47;2.95;;;;;;;;;;4927772;29;20044;-70
2024/02/06 05:41:17;;;;;;;6.78;5.80;;;;;;;;;;4925202;29;20038;-71
2024/02/06 05:43:43;;;;;;;6.97;5.10;;;;;;;;;;4909893;29;20171;-70
2024/02/06 05:46:09;;;;;;;2.95;2.72;;;;;;;;;;4925435;29;20038;-71
2024/02/06 05:48:35;;;;;;;6.70;4.85;;;;;;;;;;4925516;29;20056;-71
2024/02/06 05:51:04;;;;;;;7.88;5.97;;;;;;;;;;4927860;29;20031;-70
2024/02/06 05:53:33;;;;;;;7.38;5.32;;;;;;;;;;4934893;29;20527;-70
2024/02/06 05:56:04;;;;;;;3.42;3.15;;;;;;;;;;4929975;29;20007;-71
2024/02/06 05:58:33;;;;;;;5.75;2.53;;;;;;;;;;4938245;29;20043;-71
2024/02/06 06:01:01;;;;;;;4.57;3.63;;;;;;;;;;4911312;29;20367;-71
2024/02/06 06:03:27;;;;;;;4.82;3.67;;;;;;;;;;4928528;29;20067;-72
2024/02/06 06:05:53;;;;;;;6.78;5.32;;;;;;;;;;4932284;29;20111;-71
2024/02/06 06:08:18;;;;;;;4.30;3.75;;;;;;;;;;4928294;29;20080;-70
2024/02/06 06:10:44;;;;;;;9.00;6.28;;;;;;;;;;4927777;29;20537;-70
2024/02/06 06:13:10;;;;;;;13.27;5.90;;;;;;;;;;4925417;29;20668;-70
2024/02/06 06:15:36;;;;;;;8.05;5.93;;;;;;;;;;4927203;29;20031;-69
2024/02/06 06:18:03;;;;;;;5.40;5.00;;;;;;;;;;4926572;29;20058;-70
2024/02/06 06:20:29;;;;;;;4.40;4.10;;;;;;;;;;4910856;29;20035;-70
2024/02/06 06:22:58;;;;;;;7.03;6.15;;;;;;;;;;4925975;29;20035;-69
2024/02/06 06:25:24;;;;;;;6.53;5.93;;;;;;;;;;4926923;29;20035;-70
2024/02/06 06:27:50;;;;;;;13.27;6.30;;;;;;;;;;4927197;29;20381;-68
2024/02/06 06:30:16;;;;;;;10.93;6.70;;;;;;;;;;4925352;29;20063;-71
2024/02/06 06:32:42;;;;;;;9.45;6.15;;;;;;;;;;4921293;29;20087;-70
2024/02/06 06:35:08;;;;;;;9.18;5.45;;;;;;;;;;4923471;29;20043;-69
2024/02/06 06:37:34;;;;;;;5.97;2.95;;;;;;;;;;4924892;29;20118;-70
2024/02/06 06:40:01;;;;;;;5.60;4.63;;;;;;;;;;4922725;29;20118;-70
2024/02/06 06:42:29;;;;;;;7.28;4.93;;;;;;;;;;4925007;29;20031;-70
2024/02/06 06:44:55;;;;;;;6.55;5.95;;;;;;;;;;4925760;29;20617;-70
2024/02/06 06:47:21;;;;;;;8.88;4.53;;;;;;;;;;4910216;29;20126;-70
2024/02/06 06:49:47;;;;;;;4.97;4.07;;;;;;;;;;4925178;29;20035;-70
2024/02/06 06:52:13;;;;;;;6.53;3.70;;;;;;;;;;4923118;29;20039;-71
2024/02/06 06:54:39;;;;;;;8.38;5.20;;;;;;;;;;4926549;29;20032;-69
2024/02/06 06:57:05;;;;;;;3.72;3.38;;;;;;;;;;4926408;29;20046;-69
2024/02/06 06:59:33;;;;;;;6.50;3.45;;;;;;;;;;4928778;29;20656;-69
2024/02/06 07:02:00;;;;;;;6.30;4.43;;;;;;;;;;4927187;28;20064;-69
2024/02/06 07:04:26;;;;;;;2.92;2.72;;;;;;;;;;4926672;29;20514;-69
2024/02/06 07:06:52;;;;;;;4.28;3.78;;;;;;;;;;4927823;29;20032;-68
2024/02/06 07:09:18;;;;;;;3.08;2.88;;;;;;;;;;4927788;29;20036;-68
2024/02/06 07:11:44;;;;;;;3.92;3.58;;;;;;;;;;4927671;29;20023;-67
2024/02/06 07:14:10;;;;;;;7.20;3.97;;;;;;;;;;4926619;29;20099;-69
2024/02/06 07:16:36;;;;;;;3.10;2.90;;;;;;;;;;4928643;29;20103;-70
2024/02/06 07:19:06;;;;;;;4.60;3.17;;;;;;;;;;4927928;28;20746;-70
2024/02/06 07:21:32;;;;;;;4.65;4.28;;;;;;;;;;4929059;29;20578;-70
2024/02/06 07:23:58;;;;;;;2.75;2.55;;;;;;;;;;4927826;29;20515;-69
2024/02/06 07:26:23;;;;;;;3.60;3.33;;;;;;;;;;4925498;29;20039;-68
2024/02/06 07:28:49;;;;;;;4.72;2.95;;;;;;;;;;4894463;29;20043;-67
2024/02/06 07:31:15;;;;;;;5.45;2.80;;;;;;;;;;4935369;29;20039;-69
2024/02/06 07:33:41;;;;;;;2.30;2.20;;;;;;;;;;4932862;29;20048;-70
2024/02/06 07:36:06;;;;;;;3.42;3.13;;;;;;;;;;4930838;29;20099;-71
2024/02/06 07:38:33;;;;;;;2.80;2.58;;;;;;;;;;4929352;29;20094;-70
2024/02/06 07:40:58;;;;;;;4.55;2.72;;;;;;;;;;4929985;29;20031;-69
2024/02/06 07:43:25;;;;;;;4.55;3.22;;;;;;;;;;4930203;29;20123;-70
2024/02/06 07:45:51;;;;;;;4.75;2.92;;;;;;;;;;4927692;29;20059;-69
2024/02/06 07:48:18;;;;;;;4.40;4.10;;;;;;;;;;4930200;29;20044;-70
2024/02/06 07:50:45;;;;;;;4.00;2.78;;;;;;;;;;4930749;29;20411;-69
2024/02/06 07:53:13;;;;;;;2.30;2.20;;;;;;;;;;4930234;29;20067;-70
2024/02/06 07:55:39;;;;;;;3.38;3.15;;;;;;;;;;4929235;29;20035;-69
2024/02/06 07:58:05;;;;;;;2.05;1.95;;;;;;;;;;4930237;29;20035;-69
2024/02/06 08:00:31;;;;;;;2.53;2.33;;;;;;;;;;4911335;29;20091;-70
2024/02/06 08:02:56;;;;;;;2.63;2.53;;;;;;;;;;4930520;29;20040;-71
2024/02/06 08:05:23;;;;;;;3.33;3.03;;;;;;;;;;4933721;29;20719;-70
2024/02/06 08:07:50;;;;;;;3.50;3.20;;;;;;;;;;4932110;29;20114;-70
2024/02/06 08:10:15;;;;;;;5.45;3.35;;;;;;;;;;4927747;29;20158;-69
2024/02/06 08:12:41;;;;;;;3.20;2.60;;;;;;;;;;4928167;29;20479;-69
2024/02/06 08:15:08;;;;;;;5.05;4.75;;;;;;;;;;4934035;29;20557;-70
2024/02/06 08:17:36;;;;;;;4.15;3.00;;;;;;;;;;4927233;29;20056;-69
2024/02/06 08:20:03;;;;;;;5.05;4.65;;;;;;;;;;4931979;29;20031;-69
2024/02/06 08:22:31;;;;;;;4.70;4.30;;;;;;;;;;4927988;29;20095;-69
2024/02/06 08:24:57;;;;;;;2.33;2.13;;;;;;;;;;4932334;29;20109;-69
2024/02/06 08:27:23;;;;;;;3.20;3.00;;;;;;;;;;4927664;29;20075;-69
2024/02/06 08:29:49;;;;;;;2.15;2.05;;;;;;;;;;4929571;29;20055;-69
2024/02/06 08:32:15;;;;;;;2.25;2.15;;;;;;;;;;4927813;29;20095;-69
2024/02/06 08:34:41;;;;;;;6.38;2.35;;;;;;;;;;4929005;29;20502;-69
2024/02/06 08:37:07;;;;;;;4.35;3.55;;;;;;;;;;4929139;29;20035;-69
2024/02/06 08:39:33;;;;;;;3.05;2.75;;;;;;;;;;4929987;29;20086;-68
2024/02/06 08:41:59;;;;;;;3.10;2.78;;;;;;;;;;4898169;29;20138;-70
2024/02/06 08:44:25;;;;;;;2.03;1.92;;;;;;;;;;4915241;29;20047;-69
2024/02/06 08:46:52;;;;;;;3.05;2.72;;;;;;;;;;4952485;29;20123;-68
2024/02/06 08:49:18;;;;;;;2.55;2.40;;;;;;;;;;4969206;29;20046;-67
2024/02/06 08:51:43;;;;;;;2.35;2.25;;;;;;;;;;4947908;29;20099;-69
2024/02/06 08:54:09;;;;;;;4.30;2.95;;;;;;;;;;4932491;29;20486;-68
2024/02/06 08:56:35;;;;;;;5.15;2.90;;;;;;;;;;4931882;29;20921;-69
2024/02/06 08:59:03;;;;;;;2.15;2.05;;;;;;;;;;4933543;29;20127;-68
2024/02/06 09:01:29;;;;;;;2.75;2.55;;;;;;;;;;4932740;29;20123;-69
2024/02/06 09:03:55;;;;;;;3.90;2.10;;;;;;;;;;4930069;29;20043;-69
2024/02/06 09:06:21;;;;;;;2.83;2.60;;;;;;;;;;4943584;29;20062;-68
2024/02/06 09:08:47;;;;;;;1.52;1.42;;;;;;;;;;4947647;28;20088;-69
2024/02/06 09:11:13;;;;;;;2.70;2.50;;;;;;;;;;4932556;29;20032;-69
2024/02/06 09:13:39;;;;;;;2.33;2.22;;;;;;;;;;4914897;29;20427;-69
2024/02/06 09:16:05;;;;;;;2.20;2.10;;;;;;;;;;4932397;29;20032;-69
2024/02/06 09:18:32;;;;;;;3.63;2.97;;;;;;;;;;4932050;29;20067;-69
2024/02/06 09:23:42;;;;;;;2.75;2.55;;;;;;;;;;4931674;29;20031;-68
2024/02/06 09:26:14;;;;;;;3.72;2.78;;;;;;;;;;4940722;29;20036;-69
2024/02/06 09:28:41;;;;;;;3.33;3.03;;;;;;;;;;4951643;28;20886;-69
2024/02/06 09:31:08;;;;;;;2.75;2.00;;;;;;;;;;4942101;28;20031;-69
2024/02/06 09:33:34;;;;;;;1.45;1.45;;;;;;;;;;4931453;29;20082;-69
2024/02/06 09:36:01;;;;;;;4.72;2.03;;;;;;;;;;4939248;29;20125;-69
2024/02/06 09:38:28;;;;;;;1.95;1.85;;;;;;;;;;4950080;29;20473;-69
2024/02/06 09:40:54;;;;;;;3.17;2.83;;;;;;;;;;4950971;28;20595;-72
2024/02/06 09:43:20;;;;;;;1.50;1.50;;;;;;;;;;4949913;29;20036;-69
2024/02/06 09:45:46;;;;;;;2.90;2.70;;;;;;;;;;4914797;29;20058;-69
2024/02/06 09:48:12;;;;;;;3.25;2.80;;;;;;;;;;4932031;29;20110;-69
2024/02/06 09:50:39;;;;;;;4.38;2.97;;;;;;;;;;4931665;29;20535;-69
2024/02/06 09:53:05;;;;;;;6.32;4.15;;;;;;;;;;4931296;29;20571;-70
2024/02/06 09:55:31;;;;;;;2.63;2.22;;;;;;;;;;4934918;29;20349;-69
2024/02/06 09:57:57;;;;;;;2.65;2.45;;;;;;;;;;4951194;28;20130;-70
2024/02/06 10:00:22;;;;;;;1.90;1.85;;;;;;;;;;4950606;28;20089;-69
2024/02/06 10:02:49;;;;;;;4.75;2.72;;;;;;;;;;4938139;29;20043;-70
2024/02/06 10:05:16;;;;;;;2.70;2.50;;;;;;;;;;4930237;29;20127;-70
2024/02/06 10:08:01;;;;;;;2.72;2.35;;;;;;;;;;4930948;29;20043;-69
2024/02/06 10:10:27;;;;;;;3.25;2.08;;;;;;;;;;4934236;29;20039;-69
2024/02/06 10:12:53;;;;;;;2.00;1.85;;;;;;;;;;4949583;29;20126;-69
2024/02/06 10:15:21;;;;;;;1.20;1.20;;;;;;;;;;4935419;29;20160;-70
2024/02/06 10:17:47;;;;;;;3.50;2.38;;;;;;;;;;4949095;29;20058;-70
2024/02/06 10:20:13;;;;;;;2.10;2.00;;;;;;;;;;4950719;28;20031;-69
2024/02/06 10:22:39;;;;;;;4.72;2.20;;;;;;;;;;4929750;29;20145;-69
2024/02/06 10:25:05;;;;;;;1.63;1.63;;;;;;;;;;4931619;29;20498;-69
2024/02/06 10:27:31;;;;;;;1.75;1.70;;;;;;;;;;4949071;29;20043;-69
2024/02/06 10:30:00;;;;;;;5.05;1.98;;;;;;;;;;4950473;28;20472;-69
2024/02/06 10:32:35;;;;;;;1.80;1.70;;;;;;;;;;4944388;28;20078;-69
2024/02/06 10:35:07;;;;;;;2.13;1.98;;;;;;;;;;4931714;29;20042;-69
2024/02/06 10:37:37;;;;;;;2.50;2.30;;;;;;;;;;4948692;29;20411;-68
2024/02/06 10:42:55;;;;;;;2.22;2.13;;;;;;;;;;4941207;29;20040;-69
2024/02/06 10:45:21;;;;;;;2.63;2.42;;;;;;;;;;4930694;29;20048;-69
2024/02/06 10:47:56;;;;;;;1.70;1.70;;;;;;;;;;4949935;29;20163;-69
2024/02/06 10:50:23;;;;;;;2.28;2.08;;;;;;;;;;4950247;29;20051;-69
2024/02/06 10:52:49;;;;;;;6.28;2.70;;;;;;;;;;4941463;28;20032;-69
2024/02/06 10:55:15;;;;;;;4.72;2.83;;;;;;;;;;4931048;29;20223;-69
2024/02/06 10:57:41;;;;;;;1.63;1.52;;;;;;;;;;4948080;29;20536;-69
2024/02/06 11:00:17;;;;;;;3.10;2.80;;;;;;;;;;4948907;29;20039;-70
2024/02/06 11:02:43;;;;;;;5.50;3.17;;;;;;;;;;4938453;29;20194;-68
2024/02/06 11:05:11;;;;;;;2.03;2.03;;;;;;;;;;4933015;29;20422;-70
2024/02/06 11:07:40;;;;;;;2.10;2.00;;;;;;;;;;4917416;29;20487;-70
2024/02/06 11:10:07;;;;;;;1.83;1.70;;;;;;;;;;4934679;29;20048;-69
2024/02/06 11:12:34;;;;;;;2.80;2.28;;;;;;;;;;4944690;29;20040;-70
2024/02/06 11:15:01;;;;;;;2.55;2.42;;;;;;;;;;4934929;29;20044;-70
2024/02/06 11:17:30;;;;;;;3.55;3.33;;;;;;;;;;4949176;29;20062;-69
2024/02/06 11:19:58;;;;;;;1.75;1.75;;;;;;;;;;4954183;28;20426;-69
2024/02/06 11:22:24;;;;;;;6.07;2.00;;;;;;;;;;4948417;29;20028;-69
2024/02/06 11:24:50;;;;;;;2.30;1.77;;;;;;;;;;4934449;29;20394;-72
2024/02/06 11:27:15;;;;;;;2.33;2.22;;;;;;;;;;4946373;29;20031;-68
2024/02/06 11:29:41;;;;;;;4.88;2.13;;;;;;;;;;4953959;28;20050;-69
2024/02/06 11:32:07;;;;;;;2.42;2.30;;;;;;;;;;4952150;29;20073;-69
2024/02/06 11:34:33;;;;;;;2.72;2.03;;;;;;;;;;4934162;29;20042;-69
2024/02/06 11:37:00;;;;;;;2.20;2.10;;;;;;;;;;4944179;29;20472;-70
2024/02/06 11:39:27;;;;;;;1.92;1.83;;;;;;;;;;4955002;28;20035;-70
2024/02/06 11:41:59;;;;;;;2.92;1.75;;;;;;;;;;4954577;28;20528;-69
2024/02/06 11:44:25;;;;;;;2.13;2.03;;;;;;;;;;4944844;28;20035;-70
2024/02/06 11:46:54;;;;;;;2.03;1.92;;;;;;;;;;4951825;29;20039;-69
2024/02/06 11:49:23;;;;;;;5.50;1.60;;;;;;;;;;4934533;29;20569;-70
2024/02/06 11:51:55;;;;;;;1.95;1.88;;;;;;;;;;4942248;29;20062;-69
2024/02/06 11:54:27;;;;;;;2.67;2.00;;;;;;;;;;4934571;29;20043;-69
2024/02/06 11:56:53;;;;;;;1.98;1.88;;;;;;;;;;4933310;29;20035;-69
2024/02/06 11:59:19;;;;;;;1.70;1.60;;;;;;;;;;4933046;29;20363;-69
2024/02/06 12:01:45;;;;;;;6.82;2.22;;;;;;;;;;4917217;29;20024;-70
2024/02/06 12:04:11;;;;;;;1.95;1.60;;;;;;;;;;4917077;29;20642;-69
2024/02/06 12:06:37;;;;;;;1.58;1.58;;;;;;;;;;4939088;29;20031;-69
2024/02/06 12:09:08;;;;;;;1.98;1.88;;;;;;;;;;4947155;29;20126;-69
2024/02/06 12:11:43;;;;;;;1.90;1.80;;;;;;;;;;4933633;29;20152;-69
2024/02/06 12:14:28;;;;;;;3.78;1.80;;;;;;;;;;4932040;29;20040;-70
2024/02/06 12:16:55;;;;;;;2.30;2.20;;;;;;;;;;4932447;29;20060;-70
2024/02/06 12:19:25;;;;;;;2.35;2.15;;;;;;;;;;4932574;29;20051;-69
2024/02/06 12:22:03;;;;;;;3.25;2.13;;;;;;;;;;4933260;28;20491;-70
2024/02/06 12:24:30;;;;;;;4.35;1.85;;;;;;;;;;4932856;29;20130;-69
2024/02/06 12:27:04;;;;;;;2.13;2.03;;;;;;;;;;4933232;29;20036;-69
2024/02/06 12:29:37;;;;;;;4.60;2.00;;;;;;;;;;4931992;29;20071;-70
2024/02/06 12:32:04;;;;;;;2.78;1.90;;;;;;;;;;4933485;29;20035;-69
2024/02/06 12:34:31;;;;;;;1.75;1.60;;;;;;;;;;4932677;29;20048;-70
2024/02/06 12:36:58;;;;;;;6.30;2.08;;;;;;;;;;4933963;29;20111;-69
2024/02/06 12:39:24;;;;;;;1.65;1.60;;;;;;;;;;4933815;29;20154;-69
2024/02/06 12:41:59;;;;;;;1.60;1.50;;;;;;;;;;4932804;29;20040;-69
2024/02/06 12:44:25;;;;;;;1.70;1.60;;;;;;;;;;4931504;29;20044;-69
2024/02/06 12:46:52;;;;;;;2.88;1.85;;;;;;;;;;4915680;29;20098;-72
2024/02/06 12:49:18;;;;;;;2.75;2.20;;;;;;;;;;4934327;29;20419;-70
2024/02/06 12:51:44;;;;;;;5.93;2.50;;;;;;;;;;4932920;29;20035;-69
2024/02/06 12:54:10;;;;;;;1.95;1.80;;;;;;;;;;4931745;29;20466;-70
2024/02/06 12:56:55;;;;;;;1.63;1.52;;;;;;;;;;4931714;29;20031;-70
2024/02/06 12:59:21;;;;;;;2.08;1.83;;;;;;;;;;4931690;29;20051;-69
2024/02/06 13:01:47;;;;;;;1.50;1.50;;;;;;;;;;4931387;29;20039;-70
2024/02/06 13:04:25;;;;;;;1.20;1.20;;;;;;;;;;4931135;29;20549;-70
2024/02/06 13:06:53;;;;;;;2.20;1.92;;;;;;;;;;4931383;29;20497;-70
2024/02/06 13:09:27;;;;;;;4.78;1.40;;;;;;;;;;4931224;29;20044;-69
2024/02/06 13:11:53;;;;;;;1.60;1.50;;;;;;;;;;4935979;29;20034;-70
2024/02/06 13:14:20;;;;;;;1.55;1.55;;;;;;;;;;4919749;29;20574;-69
2024/02/06 13:16:49;;;;;;;1.83;1.70;;;;;;;;;;4934479;29;20034;-71
2024/02/06 13:19:18;;;;;;;1.65;1.55;;;;;;;;;;4950617;29;20126;-70
2024/02/06 13:21:46;;;;;;;1.77;1.67;;;;;;;;;;4950056;29;20078;-70
2024/02/06 13:24:12;;;;;;;1.30;1.20;;;;;;;;;;4938370;28;20043;-70
2024/02/06 13:26:40;;;;;;;1.60;1.50;;;;;;;;;;4931830;29;20414;-70
2024/02/06 13:29:06;;;;;;;2.10;1.60;;;;;;;;;;4931730;29;20057;-70
2024/02/06 13:31:32;;;;;;;1.60;1.50;;;;;;;;;;4932302;29;20031;-68
2024/02/06 13:33:58;;;;;;;1.70;1.60;;;;;;;;;;4931190;29;20044;-72
2024/02/06 13:36:24;;;;;;;8.80;1.40;;;;;;;;;;4932289;29;20035;-71
2024/02/06 13:38:50;;;;;;;2.33;2.10;;;;;;;;;;4949790;29;20569;-70
2024/02/06 13:41:15;;;;;;;1.20;1.20;;;;;;;;;;4934534;29;20501;-69
2024/02/06 13:43:42;;;;;;;1.83;1.73;;;;;;;;;;4924688;29;20103;-69
2024/02/06 13:46:09;;;;;;;1.67;1.58;;;;;;;;;;4932038;29;20047;-70
2024/02/06 13:48:35;;;;;;;1.00;1.00;;;;;;;;;;4945625;29;20047;-69
2024/02/06 13:51:01;;;;;;;4.22;1.75;;;;;;;;;;4951241;28;20043;-68
2024/02/06 13:53:27;;;;;;;2.50;2.28;;;;;;;;;;4944044;28;20396;-70
2024/02/06 13:55:53;;;;;;;1.67;1.60;;;;;;;;;;4931870;29;20525;-70
2024/02/06 13:58:19;;;;;;;2.28;1.95;;;;;;;;;;4943335;29;20039;-70
2024/02/06 14:00:45;;;;;;;2.30;2.20;;;;;;;;;;4950651;28;20035;-69
2024/02/06 14:03:10;;;;;;;3.00;2.10;;;;;;;;;;4935904;28;20032;-70
2024/02/06 14:05:36;;;;;;;1.60;1.50;;;;;;;;;;4930145;29;20043;-70
2024/02/06 14:08:02;;;;;;;2.30;2.10;;;;;;;;;;4898867;29;20055;-70
2024/02/06 14:10:28;;;;;;;2.60;2.38;;;;;;;;;;4930034;29;20426;-70
2024/02/06 14:12:54;;;;;;;2.35;2.15;;;;;;;;;;4937789;29;20031;-70
2024/02/06 14:15:20;;;;;;;1.58;1.58;;;;;;;;;;4932183;29;20039;-71
2024/02/06 14:17:47;;;;;;;2.28;2.17;;;;;;;;;;4938135;29;20055;-69
2024/02/06 14:20:32;;;;;;;2.17;1.98;;;;;;;;;;4951202;28;20035;-70
2024/02/06 14:22:58;;;;;;;1.92;1.83;;;;;;;;;;4948923;29;20094;-69
2024/02/06 14:25:24;;;;;;;2.22;2.13;;;;;;;;;;4931490;29;20071;-69
2024/02/06 14:27:49;;;;;;;1.52;1.50;;;;;;;;;;4931273;29;20114;-69
2024/02/06 14:30:34;;;;;;;2.40;2.30;;;;;;;;;;4932181;29;20210;-69
2024/02/06 14:33:00;;;;;;;1.85;1.75;;;;;;;;;;4931017;29;20525;-70
2024/02/06 14:35:27;;;;;;;1.88;1.77;;;;;;;;;;4931996;29;20032;-69
2024/02/06 14:37:54;;;;;;;1.98;1.88;;;;;;;;;;4934929;29;20043;-69
2024/02/06 14:40:20;;;;;;;1.58;1.48;;;;;;;;;;4947329;29;20047;-68
2024/02/06 14:42:46;;;;;;;3.33;2.40;;;;;;;;;;4933473;29;20043;-69
2024/02/06 14:45:12;;;;;;;1.88;1.77;;;;;;;;;;4935947;29;20035;-69